Time,TemperatureF,DewpointF,PressureIn,WindDirection,WindDirectionDegrees,WindSpeedMPH,WindSpeedGustMPH,Humidity,HourlyPrecipIn,Conditions,Clouds,dailyrainin,SoftwareType,DateUTC
2013-02-07 00:00:00,12.9,5.6,30.36,WNW,292,0.0,3.1,72,0.00,,,0.00,WUHU21623XXSP,2013-02-07 05:00:00,
2013-02-07 00:01:00,12.9,5.6,30.36,WNW,292,0.0,2.7,72,0.00,,,0.00,WUHU21623XXSP,2013-02-07 05:01:00,
2013-02-07 00:06:00,12.4,5.1,30.36,WNW,292,0.0,0.0,72,0.00,,,0.00,WUHU21623XXSP,2013-02-07 05:06:00,
2013-02-07 00:11:00,12.0,4.7,30.36,NNW,337,0.0,0.0,72,0.00,,,0.00,WUHU21623XXSP,2013-02-07 05:11:00,
2013-02-07 00:16:00,11.7,4.5,30.36,NNW,337,0.0,0.0,72,0.00,,,0.00,WUHU21623XXSP,2013-02-07 05:16:00,
2013-02-07 00:21:00,11.3,4.1,30.36,NNW,337,0.0,0.0,72,0.00,,,0.00,WUHU21623XXSP,2013-02-07 05:21:00,
2013-02-07 00:26:00,11.1,3.9,30.36,NNW,337,0.0,0.0,72,0.00,,,0.00,WUHU21623XXSP,2013-02-07 05:26:00,
2013-02-07 00:31:00,11.3,4.1,30.36,NNW,337,0.0,0.0,72,0.00,,,0.00,WUHU21623XXSP,2013-02-07 05:31:00,
2013-02-07 00:37:00,11.5,4.3,30.36,North,0,0.0,0.0,72,0.00,,,0.00,WUHU21623XXSP,2013-02-07 05:37:00,
2013-02-07 00:42:00,11.7,4.5,30.35,North,0,0.0,0.0,72,0.00,,,0.00,WUHU21623XXSP,2013-02-07 05:42:00,
2013-02-07 00:47:00,11.5,4.6,30.36,North,0,0.0,0.0,73,0.00,,,0.00,WUHU21623XXSP,2013-02-07 05:47:00,
2013-02-07 00:52:00,11.5,4.3,30.35,North,0,0.0,0.0,72,0.00,,,0.00,WUHU21623XXSP,2013-02-07 05:52:00,
2013-02-07 00:57:00,11.1,3.9,30.35,NE,45,0.0,0.0,72,0.00,,,0.00,WUHU21623XXSP,2013-02-07 05:57:00,
2013-02-07 01:02:00,11.1,3.9,30.35,ENE,67,0.0,0.0,72,0.00,,,0.00,WUHU21623XXSP,2013-02-07 06:02:00,
2013-02-07 01:07:00,11.1,3.9,30.35,SSE,157,0.2,0.2,72,0.00,,,0.00,WUHU21623XXSP,2013-02-07 06:07:00,
2013-02-07 01:12:00,11.1,3.9,30.34,ENE,67,0.0,0.2,72,0.00,,,0.00,WUHU21623XXSP,2013-02-07 06:12:00,
2013-02-07 01:17:00,10.9,3.4,30.34,ENE,67,0.0,0.0,71,0.00,,,0.00,WUHU21623XXSP,2013-02-07 06:17:00,
2013-02-07 01:22:00,11.1,3.6,30.35,ENE,67,0.0,0.0,71,0.00,,,0.00,WUHU21623XXSP,2013-02-07 06:22:00,
2013-02-07 01:27:00,10.9,3.4,30.35,ENE,67,0.0,0.0,71,0.00,,,0.00,WUHU21623XXSP,2013-02-07 06:27:00,
2013-02-07 01:32:00,10.8,3.3,30.36,ENE,67,0.0,0.0,71,0.00,,,0.00,WUHU21623XXSP,2013-02-07 06:32:00,
2013-02-07 01:37:00,10.6,3.1,30.36,ENE,67,0.0,0.0,71,0.00,,,0.00,WUHU21623XXSP,2013-02-07 06:37:00,
2013-02-07 01:42:00,10.6,3.1,30.36,ENE,67,0.0,0.0,71,0.00,,,0.00,WUHU21623XXSP,2013-02-07 06:42:00,
2013-02-07 01:47:00,10.2,2.7,30.36,ENE,67,0.0,0.0,71,0.00,,,0.00,WUHU21623XXSP,2013-02-07 06:47:00,
2013-02-07 01:52:00,10.0,2.2,30.36,ENE,67,0.0,0.0,70,0.00,,,0.00,WUHU21623XXSP,2013-02-07 06:52:00,
2013-02-07 01:57:00,9.7,1.9,30.37,ENE,67,0.0,0.0,70,0.00,,,0.00,WUHU21623XXSP,2013-02-07 06:57:00,
2013-02-07 02:02:00,9.3,1.8,30.37,ENE,67,1.8,3.8,71,0.00,,,0.00,WUHU21623XXSP,2013-02-07 07:02:00,
2013-02-07 02:07:00,9.3,1.8,30.38,ENE,67,0.0,3.8,71,0.00,,,0.00,WUHU21623XXSP,2013-02-07 07:07:00,
2013-02-07 02:12:00,9.3,1.8,30.37,ENE,67,0.0,0.0,71,0.00,,,0.00,WUHU21623XXSP,2013-02-07 07:12:00,
2013-02-07 02:17:00,9.5,2.0,30.38,ENE,67,0.0,0.0,71,0.00,,,0.00,WUHU21623XXSP,2013-02-07 07:17:00,
2013-02-07 02:22:00,9.7,2.5,30.39,ENE,67,1.8,2.7,72,0.00,,,0.00,WUHU21623XXSP,2013-02-07 07:22:00,
2013-02-07 02:27:00,10.0,2.8,30.38,ENE,67,0.9,2.7,72,0.00,,,0.00,WUHU21623XXSP,2013-02-07 07:27:00,
2013-02-07 02:32:00,10.2,3.0,30.38,ENE,67,0.0,2.5,72,0.00,,,0.00,WUHU21623XXSP,2013-02-07 07:32:00,
2013-02-07 02:37:00,10.4,3.2,30.37,ENE,67,0.0,0.0,72,0.00,,,0.00,WUHU21623XXSP,2013-02-07 07:37:00,
2013-02-07 02:42:00,10.4,3.2,30.37,ENE,67,1.3,1.3,72,0.00,,,0.00,WUHU21623XXSP,2013-02-07 07:42:00,
2013-02-07 02:48:00,10.2,3.0,30.38,ENE,67,2.7,3.6,72,0.00,,,0.00,WUHU21623XXSP,2013-02-07 07:48:00,
2013-02-07 02:53:00,10.0,2.8,30.38,ENE,67,3.2,4.0,72,0.00,,,0.00,WUHU21623XXSP,2013-02-07 07:53:00,
2013-02-07 02:58:00,10.0,2.8,30.37,ENE,67,1.4,4.0,72,0.00,,,0.00,WUHU21623XXSP,2013-02-07 07:58:00,
2013-02-07 03:03:00,10.0,2.8,30.37,ENE,67,0.0,2.9,72,0.00,,,0.00,WUHU21623XXSP,2013-02-07 08:03:00,
2013-02-07 03:08:00,9.9,2.7,30.37,ENE,67,0.0,0.0,72,0.00,,,0.00,WUHU21623XXSP,2013-02-07 08:08:00,
2013-02-07 03:13:00,10.0,2.8,30.37,ENE,67,0.0,0.0,72,0.00,,,0.00,WUHU21623XXSP,2013-02-07 08:13:00,
2013-02-07 03:18:00,10.0,2.8,30.37,ENE,67,0.0,0.0,72,0.00,,,0.00,WUHU21623XXSP,2013-02-07 08:18:00,
2013-02-07 03:23:00,10.2,3.0,30.37,ENE,67,0.0,0.0,72,0.00,,,0.00,WUHU21623XXSP,2013-02-07 08:23:00,
2013-02-07 03:28:00,10.2,3.0,30.37,ENE,67,0.0,0.0,72,0.00,,,0.00,WUHU21623XXSP,2013-02-07 08:28:00,
2013-02-07 03:33:00,10.8,3.6,30.37,ENE,67,0.0,0.0,72,0.00,,,0.00,WUHU21623XXSP,2013-02-07 08:33:00,
2013-02-07 03:38:00,11.1,4.2,30.37,ENE,67,0.0,0.0,73,0.00,,,0.00,WUHU21623XXSP,2013-02-07 08:38:00,
2013-02-07 03:43:00,11.8,4.8,30.37,East,90,0.0,0.0,73,0.00,,,0.00,WUHU21623XXSP,2013-02-07 08:43:00,
2013-02-07 03:48:00,12.2,5.2,30.37,SE,135,0.0,0.0,73,0.00,,,0.00,WUHU21623XXSP,2013-02-07 08:48:00,
2013-02-07 03:53:00,12.7,5.7,30.36,SE,135,0.0,0.0,73,0.00,,,0.00,WUHU21623XXSP,2013-02-07 08:53:00,
2013-02-07 03:58:00,12.9,5.6,30.37,SE,135,0.0,0.0,72,0.00,,,0.00,WUHU21623XXSP,2013-02-07 08:58:00,
2013-02-07 04:03:00,13.3,6.0,30.37,SE,135,0.0,0.0,72,0.00,,,0.00,WUHU21623XXSP,2013-02-07 09:03:00,
2013-02-07 04:08:00,13.5,6.2,30.37,SE,135,0.0,0.0,72,0.00,,,0.00,WUHU21623XXSP,2013-02-07 09:08:00,
2013-02-07 04:13:00,13.6,6.3,30.37,SE,135,0.0,0.0,72,0.00,,,0.00,WUHU21623XXSP,2013-02-07 09:13:00,
2013-02-07 04:18:00,13.8,6.5,30.37,SE,135,0.0,0.0,72,0.00,,,0.00,WUHU21623XXSP,2013-02-07 09:18:00,
2013-02-07 04:23:00,14.2,6.9,30.38,SE,135,0.0,0.0,72,0.00,,,0.00,WUHU21623XXSP,2013-02-07 09:23:00,
2013-02-07 04:28:00,14.5,7.2,30.38,SE,135,0.0,0.0,72,0.00,,,0.00,WUHU21623XXSP,2013-02-07 09:28:00,
2013-02-07 04:33:00,14.7,7.4,30.38,SE,135,0.0,0.0,72,0.00,,,0.00,WUHU21623XXSP,2013-02-07 09:33:00,
2013-02-07 04:38:00,14.9,7.2,30.39,SE,135,0.0,0.0,71,0.00,,,0.00,WUHU21623XXSP,2013-02-07 09:38:00,
2013-02-07 04:43:00,15.1,7.4,30.39,SE,135,0.0,0.0,71,0.00,,,0.00,WUHU21623XXSP,2013-02-07 09:43:00,
2013-02-07 04:48:00,15.3,7.6,30.39,SE,135,0.0,0.0,71,0.00,,,0.00,WUHU21623XXSP,2013-02-07 09:48:00,
2013-02-07 04:53:00,15.4,7.7,30.39,SE,135,0.0,0.0,71,0.00,,,0.00,WUHU21623XXSP,2013-02-07 09:53:00,
2013-02-07 04:58:00,15.6,7.6,30.39,SE,135,0.0,0.0,70,0.00,,,0.00,WUHU21623XXSP,2013-02-07 09:58:00,
2013-02-07 05:03:00,15.6,7.6,30.39,SE,135,0.0,0.0,70,0.00,,,0.00,WUHU21623XXSP,2013-02-07 10:03:00,
2013-02-07 05:08:00,15.6,7.9,30.39,SE,135,0.0,0.0,71,0.00,,,0.00,WUHU21623XXSP,2013-02-07 10:08:00,
2013-02-07 05:13:00,15.4,7.7,30.40,SE,135,0.0,0.0,71,0.00,,,0.00,WUHU21623XXSP,2013-02-07 10:13:00,
2013-02-07 05:18:00,15.4,7.7,30.40,SE,135,0.0,0.0,71,0.00,,,0.00,WUHU21623XXSP,2013-02-07 10:18:00,
2013-02-07 05:23:00,15.4,7.7,30.40,SE,135,0.0,0.0,71,0.00,,,0.00,WUHU21623XXSP,2013-02-07 10:23:00,
2013-02-07 05:28:00,15.3,7.6,30.40,SE,135,0.0,0.0,71,0.00,,,0.00,WUHU21623XXSP,2013-02-07 10:28:00,
2013-02-07 05:33:00,15.3,7.6,30.40,SE,135,0.0,0.0,71,0.00,,,0.00,WUHU21623XXSP,2013-02-07 10:33:00,
2013-02-07 05:38:00,15.4,7.7,30.40,SE,135,0.0,0.0,71,0.00,,,0.00,WUHU21623XXSP,2013-02-07 10:38:00,
2013-02-07 05:43:00,15.6,7.9,30.41,SE,135,0.0,0.0,71,0.00,,,0.00,WUHU21623XXSP,2013-02-07 10:43:00,
2013-02-07 05:48:00,15.8,7.8,30.41,SSE,157,1.4,1.8,70,0.00,,,0.00,WUHU21623XXSP,2013-02-07 10:48:00,
2013-02-07 05:53:00,16.0,8.0,30.41,SE,135,1.7,3.4,70,0.00,,,0.00,WUHU21623XXSP,2013-02-07 10:53:00,
2013-02-07 05:58:00,16.0,8.0,30.41,SE,135,0.0,3.4,70,0.00,,,0.00,WUHU21623XXSP,2013-02-07 10:58:00,
2013-02-07 06:03:00,16.2,7.9,30.41,SE,135,0.0,0.0,69,0.00,,,0.00,WUHU21623XXSP,2013-02-07 11:03:00,
2013-02-07 06:08:00,16.3,8.0,30.41,SSE,157,0.0,0.0,69,0.00,,,0.00,WUHU21623XXSP,2013-02-07 11:08:00,
2013-02-07 06:13:00,16.3,8.0,30.41,SSE,157,0.0,0.0,69,0.00,,,0.00,WUHU21623XXSP,2013-02-07 11:13:00,
2013-02-07 06:20:00,16.5,8.2,30.41,SSE,157,0.0,0.0,69,0.00,,,0.00,WUHU21623XXSP,2013-02-07 11:20:00,
2013-02-07 06:25:00,16.5,8.2,30.41,SSE,157,0.0,0.0,69,0.00,,,0.00,WUHU21623XXSP,2013-02-07 11:25:00,
2013-02-07 06:30:00,16.5,7.8,30.41,SSE,157,0.0,0.0,68,0.00,,,0.00,WUHU21623XXSP,2013-02-07 11:30:00,
2013-02-07 06:36:00,16.5,7.8,30.41,SSE,157,0.0,0.0,68,0.00,,,0.00,WUHU21623XXSP,2013-02-07 11:36:00,
2013-02-07 06:41:00,16.5,8.2,30.41,SSE,157,1.7,2.2,69,0.00,,,0.00,WUHU21623XXSP,2013-02-07 11:41:00,
2013-02-07 06:46:00,16.5,7.8,30.41,SSE,157,0.0,2.2,68,0.00,,,0.00,WUHU21623XXSP,2013-02-07 11:46:00,
2013-02-07 06:51:00,16.5,7.8,30.41,SSE,157,2.5,4.7,68,0.00,,,0.00,WUHU21623XXSP,2013-02-07 11:51:00,
2013-02-07 06:56:00,16.3,7.6,30.40,ESE,112,1.3,4.7,68,0.00,,,0.00,WUHU21623XXSP,2013-02-07 11:56:00,
2013-02-07 07:01:00,16.3,7.6,30.41,SE,135,0.0,2.9,68,0.00,,,0.00,WUHU21623XXSP,2013-02-07 12:01:00,
2013-02-07 07:06:00,16.3,7.6,30.41,SE,135,0.0,2.5,68,0.00,,,0.00,WUHU21623XXSP,2013-02-07 12:06:00,
2013-02-07 07:11:00,16.3,7.6,30.41,SE,135,0.0,0.0,68,0.00,,,0.00,WUHU21623XXSP,2013-02-07 12:11:00,
2013-02-07 07:16:00,16.3,7.6,30.41,SE,135,0.0,0.0,68,0.00,,,0.00,WUHU21623XXSP,2013-02-07 12:16:00,
2013-02-07 07:21:00,16.3,7.6,30.42,SSE,157,1.7,3.1,68,0.00,,,0.00,WUHU21623XXSP,2013-02-07 12:21:00,
2013-02-07 07:26:00,16.3,7.6,30.41,SSE,157,2.1,4.0,68,0.00,,,0.00,WUHU21623XXSP,2013-02-07 12:26:00,
2013-02-07 07:31:00,16.5,7.8,30.41,SSE,157,1.1,5.4,68,0.00,,,0.00,WUHU21623XXSP,2013-02-07 12:31:00,
2013-02-07 07:36:00,16.7,8.0,30.41,SSE,157,1.0,5.4,68,0.00,,,0.00,WUHU21623XXSP,2013-02-07 12:36:00,
2013-02-07 07:41:00,16.7,7.7,30.42,SSE,160,3.3,5.8,67,0.00,,,0.00,WUHU21623XXSP,2013-02-07 12:41:00,
2013-02-07 07:46:00,16.9,7.9,30.43,East,90,2.2,5.8,67,0.00,,,0.00,WUHU21623XXSP,2013-02-07 12:46:00,
2013-02-07 07:51:00,17.2,8.2,30.43,South,169,5.4,7.6,67,0.00,,,0.00,WUHU21623XXSP,2013-02-07 12:51:00,
2013-02-07 07:56:00,17.4,8.0,30.43,SSE,153,4.2,7.6,66,0.00,,,0.00,WUHU21623XXSP,2013-02-07 12:56:00,
2013-02-07 08:01:00,18.0,8.6,30.44,SSE,165,3.5,6.9,66,0.00,,,0.00,WUHU21623XXSP,2013-02-07 13:01:00,
2013-02-07 08:06:00,18.1,8.4,30.44,South,180,6.0,9.8,65,0.00,,,0.00,WUHU21623XXSP,2013-02-07 13:06:00,
2013-02-07 08:11:00,18.3,8.2,30.44,SSE,153,2.9,9.8,64,0.00,,,0.00,WUHU21623XXSP,2013-02-07 13:11:00,
2013-02-07 08:16:00,18.5,8.4,30.44,SSE,157,4.9,7.8,64,0.00,,,0.00,WUHU21623XXSP,2013-02-07 13:16:00,
2013-02-07 08:21:00,19.0,8.5,30.45,SSE,157,6.9,8.9,63,0.00,,,0.00,WUHU21623XXSP,2013-02-07 13:21:00,
2013-02-07 08:26:00,19.2,8.7,30.45,SE,144,2.7,8.9,63,0.00,,,0.00,WUHU21623XXSP,2013-02-07 13:26:00,
2013-02-07 08:31:00,19.6,9.1,30.45,SSE,159,3.1,5.8,63,0.00,,,0.00,WUHU21623XXSP,2013-02-07 13:31:00,
2013-02-07 08:36:00,20.1,9.2,30.45,South,180,4.5,6.7,62,0.00,,,0.00,WUHU21623XXSP,2013-02-07 13:36:00,
2013-02-07 08:41:00,20.5,9.6,30.45,SE,135,4.9,7.8,62,0.00,,,0.00,WUHU21623XXSP,2013-02-07 13:41:00,
2013-02-07 08:46:00,21.0,9.7,30.45,SSE,156,4.2,7.8,61,0.00,,,0.00,WUHU21623XXSP,2013-02-07 13:46:00,
2013-02-07 08:51:00,21.0,9.3,30.45,SSE,166,2.9,6.9,60,0.00,,,0.00,WUHU21623XXSP,2013-02-07 13:51:00,
2013-02-07 08:56:00,21.4,9.7,30.45,SSE,157,4.9,6.5,60,0.00,,,0.00,WUHU21623XXSP,2013-02-07 13:56:00,
2013-02-07 09:01:00,21.9,9.8,30.45,SSW,202,4.3,8.5,59,0.00,,,0.00,WUHU21623XXSP,2013-02-07 14:01:00,
2013-02-07 09:06:00,22.1,9.6,30.45,SE,135,6.5,10.3,58,0.00,,,0.00,WUHU21623XXSP,2013-02-07 14:06:00,
2013-02-07 09:11:00,22.5,10.0,30.45,SE,135,6.3,10.3,58,0.00,,,0.00,WUHU21623XXSP,2013-02-07 14:11:00,
2013-02-07 09:16:00,22.8,10.2,30.45,SSE,157,4.9,8.5,58,0.00,,,0.00,WUHU21623XXSP,2013-02-07 14:16:00,
2013-02-07 09:21:00,23.5,10.5,30.45,SE,127,2.3,6.7,57,0.00,,,0.00,WUHU21623XXSP,2013-02-07 14:21:00,
2013-02-07 09:26:00,23.9,10.5,30.44,South,180,4.5,4.9,56,0.00,,,0.00,WUHU21623XXSP,2013-02-07 14:26:00,
2013-02-07 09:31:00,24.4,10.9,30.44,SSE,157,1.3,4.9,56,0.00,,,0.00,WUHU21623XXSP,2013-02-07 14:31:00,
2013-02-07 09:36:00,24.6,10.7,30.45,South,180,2.8,6.3,55,0.00,,,0.00,WUHU21623XXSP,2013-02-07 14:36:00,
2013-02-07 09:41:00,25.0,11.1,30.45,South,172,2.0,6.3,55,0.00,,,0.00,WUHU21623XXSP,2013-02-07 14:41:00,
2013-02-07 09:46:00,25.5,11.1,30.44,SSE,153,4.3,8.1,54,0.00,,,0.00,WUHU21623XXSP,2013-02-07 14:46:00,
2013-02-07 09:51:00,25.7,11.3,30.45,SSE,160,4.2,8.1,54,0.00,,,0.00,WUHU21623XXSP,2013-02-07 14:51:00,
2013-02-07 09:56:00,26.2,11.4,30.45,SSW,202,3.0,6.5,53,0.00,,,0.00,WUHU21623XXSP,2013-02-07 14:56:00,
2013-02-07 10:01:00,26.4,11.5,30.44,SSE,153,3.3,6.3,53,0.00,,,0.00,WUHU21623XXSP,2013-02-07 15:01:00,
2013-02-07 10:06:00,26.8,11.5,30.44,SSE,157,5.1,6.7,52,0.00,,,0.00,WUHU21623XXSP,2013-02-07 15:06:00,
2013-02-07 10:11:00,26.6,11.3,30.44,South,186,2.2,6.7,52,0.00,,,0.00,WUHU21623XXSP,2013-02-07 15:11:00,
2013-02-07 10:16:00,26.8,11.0,30.44,SSE,157,4.3,7.6,51,0.00,,,0.00,WUHU21623XXSP,2013-02-07 15:16:00,
2013-02-07 10:21:00,26.8,11.0,30.44,SSE,157,4.7,7.6,51,0.00,,,0.00,WUHU21623XXSP,2013-02-07 15:21:00,
2013-02-07 10:26:00,26.8,11.0,30.44,SSE,168,4.4,8.5,51,0.00,,,0.00,WUHU21623XXSP,2013-02-07 15:26:00,
2013-02-07 10:31:00,26.6,10.8,30.44,SSW,202,3.6,8.5,51,0.00,,,0.00,WUHU21623XXSP,2013-02-07 15:31:00,
2013-02-07 10:36:00,26.8,10.6,30.44,SSE,152,2.9,7.6,50,0.00,,,0.00,WUHU21623XXSP,2013-02-07 15:36:00,
2013-02-07 10:41:00,27.1,10.8,30.43,SSW,198,3.6,7.6,50,0.00,,,0.00,WUHU21623XXSP,2013-02-07 15:41:00,
2013-02-07 10:46:00,27.5,11.2,30.43,SSE,155,2.8,7.2,50,0.00,,,0.00,WUHU21623XXSP,2013-02-07 15:46:00,
2013-02-07 10:51:00,28.0,11.7,30.43,SE,135,4.5,6.7,50,0.00,,,0.00,WUHU21623XXSP,2013-02-07 15:51:00,
2013-02-07 10:56:00,28.6,12.2,30.43,SE,143,2.8,7.2,50,0.00,,,0.00,WUHU21623XXSP,2013-02-07 15:56:00,
2013-02-07 11:01:00,28.6,11.8,30.43,SSE,148,4.3,7.2,49,0.00,,,0.00,WUHU21623XXSP,2013-02-07 16:01:00,
2013-02-07 11:06:00,28.6,11.8,30.43,South,179,2.5,7.2,49,0.00,,,0.00,WUHU21623XXSP,2013-02-07 16:06:00,
2013-02-07 11:11:00,28.8,11.5,30.43,SSW,209,3.3,7.8,48,0.00,,,0.00,WUHU21623XXSP,2013-02-07 16:11:00,
2013-02-07 11:16:00,29.1,11.7,30.43,WSW,247,6.3,8.5,48,0.00,,,0.00,WUHU21623XXSP,2013-02-07 16:16:00,
2013-02-07 11:21:00,29.5,12.1,30.43,SW,230,3.4,8.5,48,0.00,,,0.00,WUHU21623XXSP,2013-02-07 16:21:00,
2013-02-07 11:26:00,29.5,12.1,30.42,SSE,157,3.1,6.7,48,0.00,,,0.00,WUHU21623XXSP,2013-02-07 16:26:00,
2013-02-07 11:31:00,30.0,12.1,30.42,SSE,161,4.6,6.7,47,0.00,,,0.00,WUHU21623XXSP,2013-02-07 16:31:00,
2013-02-07 11:36:00,30.4,12.5,30.41,SE,135,7.2,9.8,47,0.00,,,0.00,WUHU21623XXSP,2013-02-07 16:36:00,
2013-02-07 11:41:00,31.1,13.1,30.41,SE,146,3.5,9.8,47,0.00,,,0.00,WUHU21623XXSP,2013-02-07 16:41:00,
2013-02-07 11:46:00,31.6,13.1,30.41,South,177,5.0,7.6,46,0.00,,,0.00,WUHU21623XXSP,2013-02-07 16:46:00,
2013-02-07 11:51:00,31.8,13.2,30.41,SSW,199,2.9,7.6,46,0.00,,,0.00,WUHU21623XXSP,2013-02-07 16:51:00,
2013-02-07 11:56:00,32.2,13.1,30.40,South,180,4.9,9.6,45,0.00,,,0.00,WUHU21623XXSP,2013-02-07 16:56:00,
2013-02-07 12:01:00,32.4,13.3,30.40,South,180,5.6,10.7,45,0.00,,,0.00,WUHU21623XXSP,2013-02-07 17:01:00,
2013-02-07 12:06:00,32.7,13.6,30.40,SSE,157,6.3,10.7,45,0.00,,,0.00,WUHU21623XXSP,2013-02-07 17:06:00,
2013-02-07 12:11:00,32.7,13.6,30.39,South,173,4.0,10.1,45,0.00,,,0.00,WUHU21623XXSP,2013-02-07 17:11:00,
2013-02-07 12:16:00,32.9,13.7,30.39,South,169,6.5,10.1,45,0.00,,,0.00,WUHU21623XXSP,2013-02-07 17:16:00,
2013-02-07 12:21:00,32.9,13.7,30.38,SSE,153,3.3,9.8,45,0.00,,,0.00,WUHU21623XXSP,2013-02-07 17:21:00,
2013-02-07 12:26:00,33.1,13.9,30.38,SSE,150,3.7,9.8,45,0.00,,,0.00,WUHU21623XXSP,2013-02-07 17:26:00,
2013-02-07 12:31:00,33.3,14.1,30.37,SSE,158,5.9,7.8,45,0.00,,,0.00,WUHU21623XXSP,2013-02-07 17:31:00,
2013-02-07 12:36:00,33.3,14.1,30.37,SSE,157,7.2,8.3,45,0.00,,,0.00,WUHU21623XXSP,2013-02-07 17:36:00,
2013-02-07 12:41:00,32.9,13.7,30.37,SSE,157,8.3,8.3,45,0.00,,,0.00,WUHU21623XXSP,2013-02-07 17:41:00,
2013-02-07 12:46:00,32.5,12.8,30.36,SE,133,3.7,8.3,44,0.00,,,0.00,WUHU21623XXSP,2013-02-07 17:46:00,
2013-02-07 12:51:00,32.4,13.3,30.36,SE,129,4.1,8.1,45,0.00,,,0.00,WUHU21623XXSP,2013-02-07 17:51:00,
2013-02-07 12:56:00,32.5,13.4,30.36,SSE,148,4.1,6.9,45,0.00,,,0.00,WUHU21623XXSP,2013-02-07 17:56:00,
2013-02-07 13:01:00,32.7,13.6,30.36,SE,138,4.3,8.5,45,0.00,,,0.00,WUHU21623XXSP,2013-02-07 18:01:00,
2013-02-07 13:06:00,32.9,13.7,30.36,SE,134,4.1,8.5,45,0.00,,,0.00,WUHU21623XXSP,2013-02-07 18:06:00,
2013-02-07 13:11:00,33.1,13.9,30.36,SE,135,5.6,8.1,45,0.00,,,0.00,WUHU21623XXSP,2013-02-07 18:11:00,
2013-02-07 13:16:00,33.3,14.1,30.35,SSE,148,3.0,9.2,45,0.00,,,0.00,WUHU21623XXSP,2013-02-07 18:16:00,
2013-02-07 13:21:00,33.6,14.4,30.35,ENE,67,8.1,9.2,45,0.00,,,0.00,WUHU21623XXSP,2013-02-07 18:21:00,
2013-02-07 13:26:00,33.8,14.0,30.34,SSE,151,5.4,9.8,44,0.00,,,0.00,WUHU21623XXSP,2013-02-07 18:26:00,
2013-02-07 13:31:00,34.0,14.2,30.34,SSE,157,4.7,9.8,44,0.00,,,0.00,WUHU21623XXSP,2013-02-07 18:31:00,
2013-02-07 13:36:00,34.3,14.5,30.34,SE,125,3.4,8.5,44,0.00,,,0.00,WUHU21623XXSP,2013-02-07 18:36:00,
2013-02-07 13:41:00,34.5,14.7,30.34,SE,135,2.2,5.4,44,0.00,,,0.00,WUHU21623XXSP,2013-02-07 18:41:00,
2013-02-07 13:46:00,34.9,15.0,30.34,SSE,157,4.5,5.8,44,0.00,,,0.00,WUHU21623XXSP,2013-02-07 18:46:00,
2013-02-07 13:51:00,34.9,14.5,30.33,South,188,3.3,7.2,43,0.00,,,0.00,WUHU21623XXSP,2013-02-07 18:51:00,
2013-02-07 13:56:00,34.7,14.9,30.33,SSE,167,2.3,7.2,44,0.00,,,0.00,WUHU21623XXSP,2013-02-07 18:56:00,
2013-02-07 14:01:00,34.5,14.1,30.33,SSE,157,5.1,6.5,43,0.00,,,0.00,WUHU21623XXSP,2013-02-07 19:01:00,
2013-02-07 14:06:00,34.3,13.9,30.33,SSE,164,5.9,9.2,43,0.00,,,0.00,WUHU21623XXSP,2013-02-07 19:06:00,
2013-02-07 14:11:00,34.2,13.9,30.32,South,181,3.0,9.8,43,0.00,,,0.00,WUHU21623XXSP,2013-02-07 19:11:00,
2013-02-07 14:16:00,34.0,14.2,30.32,SSE,155,4.2,9.8,44,0.00,,,0.00,WUHU21623XXSP,2013-02-07 19:16:00,
2013-02-07 14:21:00,34.3,14.5,30.32,South,180,4.5,9.2,44,0.00,,,0.00,WUHU21623XXSP,2013-02-07 19:21:00,
2013-02-07 14:26:00,34.3,13.9,30.32,South,170,6.1,12.3,43,0.00,,,0.00,WUHU21623XXSP,2013-02-07 19:26:00,
2013-02-07 14:31:00,34.3,13.9,30.31,SE,135,5.4,12.3,43,0.00,,,0.00,WUHU21623XXSP,2013-02-07 19:31:00,
2013-02-07 14:36:00,34.3,13.9,30.31,South,182,2.9,9.2,43,0.00,,,0.00,WUHU21623XXSP,2013-02-07 19:36:00,
2013-02-07 14:41:00,34.3,13.9,30.31,SSE,157,10.3,10.3,43,0.00,,,0.00,WUHU21623XXSP,2013-02-07 19:41:00,
2013-02-07 14:46:00,34.3,13.9,30.31,South,180,8.3,11.9,43,0.00,,,0.00,WUHU21623XXSP,2013-02-07 19:46:00,
2013-02-07 14:51:00,34.2,13.9,30.31,South,180,4.7,11.9,43,0.00,,,0.00,WUHU21623XXSP,2013-02-07 19:51:00,
2013-02-07 14:56:00,34.2,13.9,30.30,SSE,152,4.0,11.0,43,0.00,,,0.00,WUHU21623XXSP,2013-02-07 19:56:00,
2013-02-07 15:01:00,34.3,13.9,30.30,South,191,5.5,11.0,43,0.00,,,0.00,WUHU21623XXSP,2013-02-07 20:01:00,
2013-02-07 15:06:00,34.3,13.9,30.30,South,187,5.7,11.4,43,0.00,,,0.00,WUHU21623XXSP,2013-02-07 20:06:00,
2013-02-07 15:11:00,34.2,13.9,30.29,South,188,5.0,11.4,43,0.00,,,0.00,WUHU21623XXSP,2013-02-07 20:11:00,
2013-02-07 15:16:00,33.8,13.5,30.30,SSW,202,11.9,11.9,43,0.00,,,0.00,WUHU21623XXSP,2013-02-07 20:16:00,
2013-02-07 15:21:00,33.6,13.3,30.28,South,181,4.6,11.9,43,0.00,,,0.00,WUHU21623XXSP,2013-02-07 20:21:00,
2013-02-07 15:26:00,33.6,13.8,30.29,SSE,155,5.5,10.1,44,0.00,,,0.00,WUHU21623XXSP,2013-02-07 20:26:00,
2013-02-07 15:31:00,33.6,13.8,30.28,South,183,5.5,10.5,44,0.00,,,0.00,WUHU21623XXSP,2013-02-07 20:31:00,
2013-02-07 15:36:00,33.4,13.7,30.29,South,169,4.6,10.5,44,0.00,,,0.00,WUHU21623XXSP,2013-02-07 20:36:00,
2013-02-07 15:41:00,33.3,13.6,30.29,South,180,4.9,9.2,44,0.00,,,0.00,WUHU21623XXSP,2013-02-07 20:41:00,
2013-02-07 15:46:00,33.1,13.9,30.29,SSW,202,5.4,8.9,45,0.00,,,0.00,WUHU21623XXSP,2013-02-07 20:46:00,
2013-02-07 15:51:00,33.1,13.4,30.28,South,185,3.8,8.9,44,0.00,,,0.00,WUHU21623XXSP,2013-02-07 20:51:00,
2013-02-07 15:56:00,32.9,13.2,30.28,SSE,157,5.6,8.9,44,0.00,,,0.00,WUHU21623XXSP,2013-02-07 20:56:00,
2013-02-07 16:01:00,32.7,13.6,30.28,SSE,164,3.1,10.5,45,0.00,,,0.00,WUHU21623XXSP,2013-02-07 21:01:00,
2013-02-07 16:06:00,32.5,13.4,30.27,South,180,7.6,10.5,45,0.00,,,0.00,WUHU21623XXSP,2013-02-07 21:06:00,
2013-02-07 16:11:00,32.4,13.3,30.28,South,180,3.6,9.6,45,0.00,,,0.00,WUHU21623XXSP,2013-02-07 21:11:00,
2013-02-07 16:16:00,32.2,13.1,30.27,South,189,3.8,7.8,45,0.00,,,0.00,WUHU21623XXSP,2013-02-07 21:16:00,
2013-02-07 16:21:00,32.0,13.4,30.28,SSW,202,3.8,8.5,46,0.00,,,0.00,WUHU21623XXSP,2013-02-07 21:21:00,
2013-02-07 16:26:00,31.8,13.2,30.27,South,174,4.0,10.1,46,0.00,,,0.00,WUHU21623XXSP,2013-02-07 21:26:00,
2013-02-07 16:31:00,31.6,13.1,30.27,ESE,122,4.1,10.3,46,0.00,,,0.00,WUHU21623XXSP,2013-02-07 21:31:00,
2013-02-07 16:36:00,31.3,13.3,30.27,South,172,4.5,10.3,47,0.00,,,0.00,WUHU21623XXSP,2013-02-07 21:36:00,
2013-02-07 16:41:00,30.9,12.9,30.27,SSE,163,4.7,7.8,47,0.00,,,0.00,WUHU21623XXSP,2013-02-07 21:41:00,
2013-02-07 16:46:00,30.6,12.6,30.27,SE,146,3.3,7.8,47,0.00,,,0.00,WUHU21623XXSP,2013-02-07 21:46:00,
2013-02-07 16:52:00,30.4,12.5,30.27,SSE,157,3.4,7.8,47,0.00,,,0.00,WUHU21623XXSP,2013-02-07 21:52:00,
2013-02-07 16:56:00,30.0,12.6,30.27,SSE,162,2.6,7.8,48,0.00,,,0.00,WUHU21623XXSP,2013-02-07 21:56:00,
2013-02-07 17:02:00,29.5,12.1,30.27,South,186,2.7,8.1,48,0.00,,,0.00,WUHU21623XXSP,2013-02-07 22:02:00,
2013-02-07 17:07:00,29.3,12.4,30.27,SSE,161,3.7,9.6,49,0.00,,,0.00,WUHU21623XXSP,2013-02-07 22:07:00,
2013-02-07 17:12:00,29.1,12.7,30.27,SE,135,0.0,9.6,50,0.00,,,0.00,WUHU21623XXSP,2013-02-07 22:12:00,
2013-02-07 17:17:00,29.1,12.7,30.27,SE,140,2.2,4.3,50,0.00,,,0.00,WUHU21623XXSP,2013-02-07 22:17:00,
2013-02-07 17:22:00,28.9,12.5,30.27,SE,133,2.5,3.4,50,0.00,,,0.00,WUHU21623XXSP,2013-02-07 22:22:00,
2013-02-07 17:27:00,28.9,12.5,30.27,ESE,112,3.6,5.4,50,0.00,,,0.00,WUHU21623XXSP,2013-02-07 22:27:00,
2013-02-07 17:32:00,28.8,12.9,30.27,SE,142,2.1,6.3,51,0.00,,,0.00,WUHU21623XXSP,2013-02-07 22:32:00,
2013-02-07 17:37:00,28.8,12.9,30.27,SE,138,3.8,7.2,51,0.00,,,0.00,WUHU21623XXSP,2013-02-07 22:37:00,
2013-02-07 17:42:00,28.6,12.7,30.27,SSE,157,2.9,7.2,51,0.00,,,0.00,WUHU21623XXSP,2013-02-07 22:42:00,
2013-02-07 17:47:00,28.2,12.3,30.27,SE,135,2.7,4.3,51,0.00,,,0.00,WUHU21623XXSP,2013-02-07 22:47:00,
2013-02-07 17:52:00,28.2,12.3,30.26,SE,143,2.1,6.7,51,0.00,,,0.00,WUHU21623XXSP,2013-02-07 22:52:00,
2013-02-07 17:57:00,28.2,12.8,30.27,SSE,154,2.6,6.7,52,0.00,,,0.00,WUHU21623XXSP,2013-02-07 22:57:00,
2013-02-07 18:02:00,28.0,12.6,30.27,SE,141,2.3,4.9,52,0.00,,,0.00,WUHU21623XXSP,2013-02-07 23:02:00,
2013-02-07 18:07:00,28.0,13.0,30.26,SSE,160,3.4,6.5,53,0.00,,,0.00,WUHU21623XXSP,2013-02-07 23:07:00,
2013-02-07 18:12:00,28.0,13.0,30.27,SE,135,4.9,6.5,53,0.00,,,0.00,WUHU21623XXSP,2013-02-07 23:12:00,
2013-02-07 18:17:00,28.0,13.0,30.27,SE,135,0.0,5.1,53,0.00,,,0.00,WUHU21623XXSP,2013-02-07 23:17:00,
2013-02-07 18:22:00,28.0,13.0,30.27,ESE,112,3.4,5.1,53,0.00,,,0.00,WUHU21623XXSP,2013-02-07 23:22:00,
2013-02-07 18:27:00,28.2,13.2,30.26,SE,132,2.2,4.7,53,0.00,,,0.00,WUHU21623XXSP,2013-02-07 23:27:00,
2013-02-07 18:32:00,28.2,13.2,30.27,SE,135,5.4,6.0,53,0.00,,,0.00,WUHU21623XXSP,2013-02-07 23:32:00,
2013-02-07 18:37:00,28.2,13.2,30.26,ESE,112,4.0,6.0,53,0.00,,,0.00,WUHU21623XXSP,2013-02-07 23:37:00,
2013-02-07 18:42:00,28.6,13.6,30.26,SE,135,2.5,6.0,53,0.00,,,0.00,WUHU21623XXSP,2013-02-07 23:42:00,
2013-02-07 18:47:00,28.8,13.8,30.26,SSE,151,2.7,6.0,53,0.00,,,0.00,WUHU21623XXSP,2013-02-07 23:47:00,
2013-02-07 18:52:00,28.8,13.8,30.26,SE,140,3.6,6.0,53,0.00,,,0.00,WUHU21623XXSP,2013-02-07 23:52:00,
2013-02-07 18:57:00,28.9,14.3,30.26,SSE,151,2.9,7.8,54,0.00,,,0.00,WUHU21623XXSP,2013-02-07 23:57:00,
2013-02-07 19:02:00,28.9,14.3,30.26,SSE,157,2.9,7.8,54,0.00,,,0.00,WUHU21623XXSP,2013-02-08 00:02:00,
2013-02-07 19:07:00,28.9,14.3,30.26,SSE,167,3.0,5.8,54,0.00,,,0.00,WUHU21623XXSP,2013-02-08 00:07:00,
2013-02-07 19:12:00,28.9,14.3,30.26,SSE,149,2.5,5.8,54,0.00,,,0.00,WUHU21623XXSP,2013-02-08 00:12:00,
2013-02-07 19:17:00,29.1,14.5,30.26,South,180,3.6,5.1,54,0.00,,,0.00,WUHU21623XXSP,2013-02-08 00:17:00,
2013-02-07 19:22:00,29.1,14.5,30.26,SSE,150,2.9,6.3,54,0.00,,,0.00,WUHU21623XXSP,2013-02-08 00:22:00,
2013-02-07 19:27:00,29.1,14.5,30.25,SSE,157,6.5,6.5,54,0.00,,,0.00,WUHU21623XXSP,2013-02-08 00:27:00,
2013-02-07 19:32:00,29.1,14.5,30.25,SSE,157,3.8,7.2,54,0.00,,,0.00,WUHU21623XXSP,2013-02-08 00:32:00,
2013-02-07 19:37:00,29.3,14.7,30.25,SSE,150,2.2,9.6,54,0.00,,,0.00,WUHU21623XXSP,2013-02-08 00:37:00,
2013-02-07 19:42:00,29.3,14.7,30.25,South,180,8.7,9.6,54,0.00,,,0.00,WUHU21623XXSP,2013-02-08 00:42:00,
2013-02-07 19:47:00,29.5,14.9,30.25,SSE,153,2.4,9.6,54,0.00,,,0.00,WUHU21623XXSP,2013-02-08 00:47:00,
2013-02-07 19:52:00,29.5,14.9,30.25,SSE,157,4.0,8.5,54,0.00,,,0.00,WUHU21623XXSP,2013-02-08 00:52:00,
2013-02-07 19:57:00,29.5,14.9,30.25,South,180,7.6,10.3,54,0.00,,,0.00,WUHU21623XXSP,2013-02-08 00:57:00,
2013-02-07 20:02:00,29.5,14.9,30.25,SSE,168,5.5,10.7,54,0.00,,,0.00,WUHU21623XXSP,2013-02-08 01:02:00,
2013-02-07 20:07:00,29.5,14.9,30.25,SSE,168,4.3,12.5,54,0.00,,,0.00,WUHU21623XXSP,2013-02-08 01:07:00,
2013-02-07 20:12:00,29.5,15.3,30.25,SSE,157,3.4,12.5,55,0.00,,,0.00,WUHU21623XXSP,2013-02-08 01:12:00,
2013-02-07 20:17:00,29.5,15.3,30.25,SE,143,4.2,8.1,55,0.00,,,0.00,WUHU21623XXSP,2013-02-08 01:17:00,
2013-02-07 20:22:00,29.5,15.3,30.24,SSW,202,6.0,8.5,55,0.00,,,0.00,WUHU21623XXSP,2013-02-08 01:22:00,
2013-02-07 20:27:00,29.5,15.3,30.24,SSE,153,5.5,10.7,55,0.00,,,0.00,WUHU21623XXSP,2013-02-08 01:27:00,
2013-02-07 20:32:00,29.3,15.1,30.24,South,175,4.8,10.7,55,0.00,,,0.00,WUHU21623XXSP,2013-02-08 01:32:00,
2013-02-07 20:38:00,29.3,15.1,30.24,South,183,5.5,10.5,55,0.00,,,0.00,WUHU21623XXSP,2013-02-08 01:38:00,
2013-02-07 20:44:00,29.3,15.1,30.24,SE,135,4.3,9.2,55,0.00,,,0.00,WUHU21623XXSP,2013-02-08 01:44:00,
2013-02-07 20:49:00,29.3,15.1,30.23,SSE,163,5.7,10.3,55,0.00,,,0.00,WUHU21623XXSP,2013-02-08 01:49:00,
2013-02-07 20:54:00,29.3,14.7,30.23,South,173,6.4,11.2,54,0.00,,,0.00,WUHU21623XXSP,2013-02-08 01:54:00,
2013-02-07 20:59:00,29.1,14.5,30.23,SSE,157,13.4,13.4,54,0.00,,,0.00,WUHU21623XXSP,2013-02-08 01:59:00,
2013-02-07 21:04:00,29.1,14.5,30.23,SE,135,8.1,13.4,54,0.00,,,0.00,WUHU21623XXSP,2013-02-08 02:04:00,
2013-02-07 21:09:00,28.9,14.3,30.23,SSE,159,6.0,13.6,54,0.00,,,0.00,WUHU21623XXSP,2013-02-08 02:09:00,
2013-02-07 21:14:00,28.9,14.3,30.23,SW,225,8.9,14.1,54,0.00,,,0.00,WUHU21623XXSP,2013-02-08 02:14:00,
2013-02-07 21:19:00,28.9,14.3,30.23,South,179,6.0,15.4,54,0.00,,,0.00,WUHU21623XXSP,2013-02-08 02:19:00,
2013-02-07 21:24:00,28.9,14.3,30.22,South,180,9.2,17.9,54,0.00,,,0.00,WUHU21623XXSP,2013-02-08 02:24:00,
2013-02-07 21:29:00,28.9,14.3,30.22,SSE,163,5.2,17.9,54,0.00,,,0.00,WUHU21623XXSP,2013-02-08 02:29:00,
2013-02-07 21:34:00,28.9,14.3,30.22,SSE,157,5.4,17.2,54,0.00,,,0.00,WUHU21623XXSP,2013-02-08 02:34:00,
2013-02-07 21:39:00,28.9,14.3,30.22,SSE,167,8.0,17.2,54,0.00,,,0.00,WUHU21623XXSP,2013-02-08 02:39:00,
2013-02-07 21:44:00,28.9,14.3,30.22,South,177,5.5,13.9,54,0.00,,,0.00,WUHU21623XXSP,2013-02-08 02:44:00,
2013-02-07 21:49:00,28.9,14.7,30.22,South,184,6.3,10.1,55,0.00,,,0.00,WUHU21623XXSP,2013-02-08 02:49:00,
2013-02-07 21:54:00,28.8,14.7,30.22,SE,135,8.5,13.2,55,0.00,,,0.00,WUHU21623XXSP,2013-02-08 02:54:00,
2013-02-07 21:59:00,28.8,14.7,30.22,South,180,4.9,13.2,55,0.00,,,0.00,WUHU21623XXSP,2013-02-08 02:59:00,
2013-02-07 22:04:00,28.6,14.5,30.21,SW,225,4.0,11.9,55,0.00,,,0.00,WUHU21623XXSP,2013-02-08 03:04:00,
2013-02-07 22:09:00,28.6,14.5,30.21,SSW,202,8.7,10.3,55,0.00,,,0.00,WUHU21623XXSP,2013-02-08 03:09:00,
2013-02-07 22:14:00,28.6,14.5,30.21,SSE,157,7.2,10.5,55,0.00,,,0.00,WUHU21623XXSP,2013-02-08 03:14:00,
2013-02-07 22:19:00,28.6,14.5,30.20,SSW,202,10.5,13.0,55,0.00,,,0.00,WUHU21623XXSP,2013-02-08 03:19:00,
2013-02-07 22:25:00,28.2,14.1,30.21,South,169,8.2,16.6,55,0.00,,,0.00,WUHU21623XXSP,2013-02-08 03:25:00,
2013-02-07 22:30:00,28.2,14.1,30.20,SSE,157,7.6,16.6,55,0.00,,,0.00,WUHU21623XXSP,2013-02-08 03:30:00,
2013-02-07 22:35:00,28.2,14.1,30.20,SSE,155,7.1,13.0,55,0.00,,,0.00,WUHU21623XXSP,2013-02-08 03:35:00,
2013-02-07 22:40:00,28.2,14.1,30.20,SSE,157,12.3,13.0,55,0.00,,,0.00,WUHU21623XXSP,2013-02-08 03:40:00,
2013-02-07 22:45:00,28.0,14.3,30.20,South,180,6.3,15.9,56,0.00,,,0.00,WUHU21623XXSP,2013-02-08 03:45:00,
2013-02-07 22:50:00,28.0,13.9,30.19,SSE,157,7.3,18.1,55,0.00,,,0.00,WUHU21623XXSP,2013-02-08 03:50:00,
2013-02-07 22:55:00,28.0,14.3,30.19,South,178,5.2,18.1,56,0.00,,,0.00,WUHU21623XXSP,2013-02-08 03:55:00,
2013-02-07 23:00:00,27.7,14.0,30.18,SSE,165,8.2,17.0,56,0.00,,,0.00,WUHU21623XXSP,2013-02-08 04:00:00,
2013-02-07 23:05:00,27.7,14.0,30.18,SSE,154,8.8,17.0,56,0.00,,,0.00,WUHU21623XXSP,2013-02-08 04:05:00,
2013-02-07 23:10:00,27.5,13.9,30.18,South,173,6.7,17.2,56,0.00,,,0.00,WUHU21623XXSP,2013-02-08 04:10:00,
2013-02-07 23:15:00,27.3,13.2,30.18,South,169,8.6,17.2,55,0.00,,,0.00,WUHU21623XXSP,2013-02-08 04:15:00,
2013-02-07 23:20:00,27.3,13.2,30.18,SE,135,8.9,18.1,55,0.00,,,0.00,WUHU21623XXSP,2013-02-08 04:20:00,
2013-02-07 23:25:00,27.1,13.1,30.17,SSE,157,10.7,18.1,55,0.00,,,0.00,WUHU21623XXSP,2013-02-08 04:25:00,
2013-02-07 23:30:00,27.1,13.1,30.17,South,183,10.3,18.1,55,0.00,,,0.00,WUHU21623XXSP,2013-02-08 04:30:00,
2013-02-07 23:35:00,27.1,13.1,30.17,SSE,157,24.2,24.2,55,0.00,,,0.00,WUHU21623XXSP,2013-02-08 04:35:00,
2013-02-07 23:40:00,27.1,13.1,30.17,SSE,157,12.5,24.2,55,0.00,,,0.00,WUHU21623XXSP,2013-02-08 04:40:00,
2013-02-07 23:45:00,27.0,13.0,30.16,SSE,156,9.4,24.2,55,0.00,,,0.00,WUHU21623XXSP,2013-02-08 04:45:00,
2013-02-07 23:50:00,27.0,13.4,30.16,SSE,152,6.8,21.3,56,0.00,,,0.00,WUHU21623XXSP,2013-02-08 04:50:00,
2013-02-07 23:55:00,27.0,13.4,30.16,SE,135,11.0,17.2,56,0.00,,,0.00,WUHU21623XXSP,2013-02-08 04:55:00,